Skip Navigation Links
NOAA logo - Click to go to the NOAA homepage
NOAA's National Weather Service
Alaska Aviation Weather Unit
  NWS logo - Click to go to the NWS homepage
Left Navbar Graphic     08 AKDT = 16 GMT

   
NOAA is celebrating 200 years of science, service, and stewardship. Visit the NOAA 200th celebration Web site to learn more.
USA.gov is the U.S. Government's official Web portal to all Federal, state and local government Web resources and services.
Facebook
NWS on Facebook

Important Change Regarding the AAWU Web Presence

 

Over the last several months, the AAWU has been working to navigate its webpages to a nationally supported server. Security, as well as other needs, have necessitated the change.  In the process, we have made an effort to enhance the functionality of our website, as well as some of our products. As of June 20, 2017, aawu.arh.noaa.gov will be discontinued. The new AAWU web address is weather.gov/aawu. It is now live and will run in-parallel with the old site until it is discontinued. Please send any feedback or questions regarding the new webpages to nws.ar.aawu.webauthors@noaa.gov.  Thank you for your patience during this time of transition.
AAWU Home :: Display TAF Add Bookmark
TAF CYOC 231506Z 2315/2401 05006KT 3SM -RA BR FEW008 OVC020 TEMPO
     2315/2401 6SM BR SCT020 OVC030 PROB30 2315/2318 11/2SM -RA BR
    RMK NXT FCST BY 231800Z=

METAR CYOC 231300Z 07008KT 1 1/2SM -RA BR FEW007 BKN018 OVC028 03/02 A2971 RMK ST2ST4SC2 CLIMAT 9.6/2.4/3.4MM SLP077= METAR CYOC 231400Z 05006KT 1 1/2SM -RA BR FEW008 BKN021 OVC028 03/02 A2973 RMK ST2ST5SC1 VIS NE 6 SLP082= SPECI CYOC 231432Z 08005KT 5SM -RA BR FEW008 BKN023 OVC028 03/02 A2973 RMK SF2ST4SC2 SLP082= METAR CYOC 231500Z 05008KT 030V100 6SM -RA BR FEW009 BKN024 OVC034 04/02 A2973 RMK SF2ST4SC2 VIS W 1 1/2 SLP083= METAR CYOC 231600Z 05007KT 6SM -RA BR SCT007 BKN024 BKN032 OVC080 04/02 A2974 RMK SF3ST2SC1AS2 VIS W-NW 1 1/2/SUN DMLY VISBL SLP084=
 Alaska TAF Map

NOAA's National Weather Service
Alaska Aviation Weather Unit
6930 Sand Lake Road
Anchorage, AK 99502-1845
Disclaimer
Credits
Glossary
Privacy Policy
About Us
Career Opportunities
Contact AAWU Internet Services Site last modified: April, 17th 2012